Portada
METAR-TAF:

METAR-TAF

Aeroports :

Gladstone, Austràlia

latitud: 23-52-11S, longitud: 151-13-22E, altitud: 18 m

Observació

L'informe es va fer fa 26 minuts, a les 17:33 UTC
Vent 6 kt del Sud-Oest
Temperatura 22°C
Humitat 88%
Pressió 1009 hPa
Visibilitat 10 km o més
Núvols disperses a una alçada de 1600 ft
Núvols disperses a una alçada de 2000 ft
Cel ennuvolat a una alçada de 3000 ft

METAR: YGLA 031733Z AUTO 23006KT 9999 // SCT016 SCT020 BKN030 22/20 Q1009

Hora: 03:59 (17:59 UTC)

Pronòstic

L'informe es va fer fa 31 minuts, a les 17:28 UTC
Pronòstic vàlid del 03 a les 18 UTC al 04 a les 06 UTC
Vent 4 kt del Sud/Sud-Oest
Visibilitat 10 km o més
Núvols disperses a una alçada de 1500 ft
A partir de les 03 a les 2300 UTC
Vent 14 kt del Nord
Visibilitat 10 km o més
Núvols disperses a una alçada de 4000 ft

TAF: YGLA 031728Z 0318/0406 20004KT 9999 SCT015 FM032300 01014KT 9999 SCT040

Observacions i pronòstics meteorològics de més de 4000 aeroports (METAR i TAF).

Les estacions disponibles són els punts grocs i vermells al mapa.

Posi el ratolí al punt desitjat per veure el nom de l'estació.

Feu clic per veure les observacions i els pronòstics meteorològics.

Per canviar el mapa: feu clic els botons verds amb una creu de color negre per apropar; al botó verd amb un guió per allunyar la imatge; o en les fletxes verdes per a mapes adjacents.


METAR-TAF: